createdAt,value
2019-06-07T00:00:52.446Z,87.80
2019-06-07T00:03:27.621Z,87.50
2019-06-07T00:05:46.801Z,87.10
2019-06-07T00:08:21.329Z,86.80
2019-06-07T00:10:41.488Z,86.70
2019-06-07T00:13:09.298Z,86.10
2019-06-07T00:15:35.735Z,85.60
2019-06-07T00:18:02.016Z,86.00
2019-06-07T00:20:28.297Z,86.20
2019-06-07T00:22:54.460Z,86.80
2019-06-07T00:25:24.320Z,87.20
2019-06-07T00:27:49.013Z,86.80
2019-06-07T00:30:35.949Z,87.10
2019-06-07T00:32:45.731Z,87.60
2019-06-07T00:35:15.387Z,88.30
2019-06-07T00:37:41.464Z,88.50
2019-06-07T00:40:20.652Z,89.20
2019-06-07T00:42:36.522Z,90.00
2019-06-07T00:45:07.526Z,90.30
2019-06-07T00:47:33.714Z,90.40
2019-06-07T00:49:59.897Z,90.50
2019-06-07T00:54:54.152Z,90.60
2019-06-07T00:57:22.156Z,90.60
2019-06-07T00:59:48.423Z,90.60
2019-06-07T01:02:16.084Z,90.30
2019-06-07T01:04:42.714Z,90.40
2019-06-07T01:07:08.873Z,90.60
2019-06-07T01:09:35.058Z,90.70
2019-06-07T01:12:01.223Z,90.80
2019-06-07T01:14:28.754Z,90.80
2019-06-07T01:17:05.269Z,91.00
2019-06-07T01:19:26.484Z,91.20
2019-06-07T01:21:52.159Z,91.70
2019-06-07T01:24:19.911Z,91.80
2019-06-07T01:26:46.334Z,91.90
2019-06-07T01:29:12.499Z,92.10
2019-06-07T01:31:38.692Z,92.30
2019-06-07T01:34:05.853Z,92.30
2019-06-07T01:36:32.057Z,92.30
2019-06-07T01:38:58.401Z,92.30
2019-06-07T01:41:25.899Z,92.30
2019-06-07T01:43:52.669Z,92.10
2019-06-07T01:46:20.605Z,92.20
2019-06-07T01:48:56.504Z,92.20
2019-06-07T01:51:24.290Z,92.10
2019-06-07T01:53:50.968Z,92.20
2019-06-07T01:56:18.528Z,92.10
2019-06-07T01:58:45.214Z,92.20
2019-06-07T02:01:11.369Z,92.30
2019-06-07T02:03:37.554Z,92.30
2019-06-07T02:06:03.837Z,92.60
2019-06-07T02:08:34.256Z,92.50
2019-06-07T02:10:58.117Z,92.70
2019-06-07T02:13:27.407Z,92.80
2019-06-07T02:15:52.473Z,92.80
2019-06-07T02:18:21.778Z,93.20
2019-06-07T02:20:46.996Z,93.50
2019-06-07T02:23:13.158Z,93.40
2019-06-07T02:25:49.593Z,93.00
2019-06-07T02:28:32.059Z,92.90
2019-06-07T02:30:44.627Z,93.20
2019-06-07T02:33:03.574Z,93.90
2019-06-07T02:35:34.748Z,93.90
2019-06-07T02:37:57.830Z,93.30
2019-06-07T02:40:24.504Z,93.60
2019-06-07T02:42:52.086Z,93.90
2019-06-07T02:45:18.454Z,93.70
2019-06-07T02:50:39.020Z,94.30
2019-06-07T02:53:05.429Z,94.30
2019-06-07T02:55:44.729Z,94.30
2019-06-07T02:57:59.670Z,94.40
2019-06-07T03:01:00.518Z,94.20
2019-06-07T03:03:14.050Z,94.10
2019-06-07T03:05:44.553Z,94.20
2019-06-07T03:08:13.794Z,94.30
2019-06-07T03:10:43.770Z,94.30
2019-06-07T03:13:13.089Z,94.30
2019-06-07T03:15:49.622Z,94.00
2019-06-07T03:18:12.845Z,94.40
2019-06-07T03:20:40.949Z,94.80
2019-06-07T03:23:07.349Z,94.60
2019-06-07T03:25:37.373Z,94.60
2019-06-07T03:28:05.308Z,94.70
2019-06-07T03:30:52.737Z,94.70
2019-06-07T03:32:59.590Z,94.50
2019-06-07T03:35:28.475Z,94.30
2019-06-07T03:37:53.862Z,94.40
2019-06-07T03:40:20.027Z,94.20
2019-06-07T03:42:46.256Z,94.30
2019-06-07T03:45:13.835Z,94.30
2019-06-07T03:47:42.648Z,93.90
2019-06-07T03:50:08.251Z,93.60
2019-06-07T03:52:36.901Z,93.40
2019-06-07T03:55:04.404Z,93.00
2019-06-07T03:58:14.951Z,92.70
2019-06-07T03:59:58.633Z,92.60
2019-06-07T04:02:25.112Z,92.00
2019-06-07T04:04:51.298Z,91.70
2019-06-07T04:07:17.452Z,91.50
2019-06-07T04:09:43.633Z,91.00
2019-06-07T04:12:09.825Z,90.40
2019-06-07T04:14:38.505Z,89.60
2019-06-07T04:17:04.081Z,89.10
2019-06-07T04:19:32.212Z,87.90
2019-06-07T04:21:58.477Z,87.80
2019-06-07T04:24:24.655Z,86.10
2019-06-07T04:26:50.849Z,84.50
2019-06-07T04:29:41.586Z,83.50
2019-06-07T04:31:45.198Z,82.00
2019-06-07T04:34:11.492Z,81.00
2019-06-07T04:36:51.934Z,79.00
2019-06-07T04:39:06.692Z,77.90
2019-06-07T04:41:36.689Z,75.70
2019-06-07T04:44:02.269Z,73.70
2019-06-07T04:46:31.406Z,71.20
2019-06-07T04:49:00.925Z,71.30
2019-06-07T04:51:30.149Z,71.80
2019-06-07T04:53:56.857Z,70.80
2019-06-07T04:56:23.062Z,71.50
2019-06-07T04:58:49.310Z,69.50
2019-06-07T05:01:26.831Z,65.70
2019-06-07T05:03:44.466Z,63.50
2019-06-07T05:06:10.902Z,60.00
2019-06-07T05:08:38.781Z,59.40
2019-06-07T05:11:05.161Z,58.80
2019-06-07T05:13:36.733Z,58.10
2019-06-07T05:15:59.826Z,59.30
2019-06-07T05:18:26.132Z,60.10
2019-06-07T05:20:53.241Z,59.40
2019-06-07T05:24:00.305Z,56.80
2019-06-07T05:25:47.661Z,56.30
2019-06-07T05:28:13.863Z,56.70
2019-06-07T05:33:15.406Z,54.20
2019-06-07T05:35:43.494Z,52.60
2019-06-07T05:38:09.892Z,53.60
2019-06-07T05:40:42.445Z,51.70
2019-06-07T05:43:10.863Z,49.60
2019-06-07T05:45:42.285Z,50.00
2019-06-07T05:48:06.782Z,50.40
2019-06-07T05:50:41.511Z,48.30
2019-06-07T05:53:01.504Z,45.90
2019-06-07T05:55:28.791Z,45.90
2019-06-07T05:57:55.256Z,44.90
2019-06-07T06:00:21.422Z,42.70
2019-06-07T06:03:04.351Z,42.90
2019-06-07T06:05:32.556Z,40.90
2019-06-07T06:07:50.450Z,40.70
2019-06-07T06:10:14.369Z,40.30
2019-06-07T06:12:45.173Z,40.60
2019-06-07T06:15:09.884Z,40.60
2019-06-07T06:17:37.832Z,40.70
2019-06-07T06:20:05.520Z,40.00
2019-06-07T06:22:31.719Z,39.80
2019-06-07T06:25:30.542Z,40.10
2019-06-07T06:28:03.429Z,37.50
2019-06-07T06:29:54.218Z,37.30
2019-06-07T06:34:52.749Z,38.70
2019-06-07T06:37:17.724Z,40.90
2019-06-07T06:39:46.613Z,37.40
2019-06-07T06:42:12.028Z,36.50
2019-06-07T06:44:40.732Z,36.30
2019-06-07T06:47:06.303Z,35.20
2019-06-07T06:49:32.470Z,34.50
2019-06-07T06:51:58.782Z,33.10
2019-06-07T06:54:40.094Z,31.40
2019-06-07T06:56:53.168Z,32.20
2019-06-07T06:59:38.133Z,30.60
2019-06-07T07:01:50.573Z,32.00
2019-06-07T07:04:15.922Z,32.50
2019-06-07T07:06:42.757Z,29.80
2019-06-07T07:09:09.033Z,29.90
2019-06-07T07:11:52.273Z,29.90
2019-06-07T07:14:03.316Z,29.40
2019-06-07T07:16:29.481Z,30.00
2019-06-07T07:18:55.713Z,31.80
2019-06-07T07:21:21.898Z,32.50
2019-06-07T07:24:14.722Z,31.60
2019-06-07T07:26:16.150Z,32.00
2019-06-07T07:28:42.993Z,30.30
2019-06-07T07:31:10.003Z,29.80
2019-06-07T07:36:19.102Z,29.30
2019-06-07T07:38:32.490Z,29.40
2019-06-07T07:41:13.951Z,30.90
2019-06-07T07:43:26.837Z,29.60
2019-06-07T07:46:01.364Z,30.30
2019-06-07T07:48:21.192Z,29.50
2019-06-07T07:50:49.783Z,29.10
2019-06-07T07:53:15.573Z,27.80
2019-06-07T07:55:41.778Z,28.70
2019-06-07T07:58:07.981Z,27.90
2019-06-07T08:00:52.587Z,28.20
2019-06-07T08:03:04.551Z,29.20
2019-06-07T08:05:42.558Z,29.60
2019-06-07T08:08:01.608Z,30.10
2019-06-07T08:10:27.232Z,29.30
2019-06-07T08:13:15.882Z,30.00
2019-06-07T08:15:21.619Z,28.70
2019-06-07T08:17:50.509Z,28.00
2019-06-07T08:20:16.361Z,27.80
2019-06-07T08:22:42.554Z,27.50
2019-06-07T08:25:10.719Z,28.40
2019-06-07T08:27:38.022Z,28.90
2019-06-07T08:30:35.473Z,27.80
2019-06-07T08:32:34.882Z,26.10
2019-06-07T08:35:06.053Z,28.10
2019-06-07T08:38:13.158Z,26.80
2019-06-07T08:39:59.745Z,26.20
2019-06-07T08:42:36.469Z,26.50
2019-06-07T08:44:54.299Z,26.40
2019-06-07T08:47:21.573Z,27.40
2019-06-07T08:49:47.764Z,27.00
2019-06-07T08:52:14.151Z,25.80
2019-06-07T08:54:40.345Z,25.40
2019-06-07T08:57:20.440Z,25.80
2019-06-07T08:59:34.590Z,26.10
2019-06-07T09:02:05.773Z,26.70
2019-06-07T09:04:29.095Z,27.20
2019-06-07T09:07:07.253Z,26.50
2019-06-07T09:09:23.491Z,25.10
2019-06-07T09:11:49.665Z,26.80
2019-06-07T09:14:15.868Z,26.90
2019-06-07T09:16:42.032Z,27.90
2019-06-07T09:19:11.030Z,27.10
2019-06-07T09:21:36.327Z,25.40
2019-06-07T09:24:08.810Z,25.20
2019-06-07T09:26:31.120Z,26.30
2019-06-07T09:28:58.543Z,26.00
2019-06-07T09:31:50.623Z,26.80
2019-06-07T09:33:54.218Z,27.00
2019-06-07T09:36:20.411Z,26.70
2019-06-07T09:38:46.803Z,26.20
2019-06-07T09:41:13.017Z,26.20
2019-06-07T09:44:05.236Z,27.60
2019-06-07T09:46:12.813Z,25.70
2019-06-07T09:51:09.866Z,24.90
2019-06-07T09:53:32.825Z,26.30
2019-06-07T09:56:03.540Z,27.60
2019-06-07T10:00:55.168Z,26.60
2019-06-07T10:03:22.782Z,26.30
2019-06-07T10:05:49.221Z,26.20
2019-06-07T10:09:01.033Z,26.10
2019-06-07T10:10:43.543Z,24.60
2019-06-07T10:13:10.323Z,26.40
2019-06-07T10:15:36.824Z,27.20
2019-06-07T10:18:03.215Z,26.90
2019-06-07T10:20:29.378Z,27.10
2019-06-07T10:22:56.849Z,26.30
2019-06-07T10:25:23.024Z,23.80
2019-06-07T10:27:49.187Z,23.70
2019-06-07T10:30:15.482Z,23.50
2019-06-07T10:32:41.645Z,24.60
2019-06-07T10:35:10.188Z,24.10
2019-06-07T10:37:36.569Z,24.40
2019-06-07T10:40:06.782Z,24.80
2019-06-07T10:42:33.153Z,25.20
2019-06-07T10:44:59.342Z,26.20
2019-06-07T10:47:25.533Z,26.10
2019-06-07T10:49:51.808Z,26.40
2019-06-07T10:52:17.975Z,25.80
2019-06-07T10:54:45.294Z,25.90
2019-06-07T10:57:15.899Z,25.30
2019-06-07T10:59:40.664Z,25.00
2019-06-07T11:02:07.958Z,24.10
2019-06-07T11:04:34.208Z,25.60
2019-06-07T11:07:00.493Z,26.70
2019-06-07T11:09:26.997Z,26.70
2019-06-07T11:11:53.148Z,26.30
2019-06-07T11:14:19.335Z,24.60
2019-06-07T11:16:45.489Z,26.20
2019-06-07T11:19:14.442Z,26.20
2019-06-07T11:21:40.855Z,25.20
2019-06-07T11:24:08.074Z,23.50
2019-06-07T11:26:34.314Z,23.70
2019-06-07T11:29:00.494Z,24.10
2019-06-07T11:31:26.672Z,24.00
2019-06-07T11:33:52.921Z,24.90
2019-06-07T11:36:19.089Z,25.10
2019-06-07T11:38:45.396Z,26.40
2019-06-07T11:41:11.638Z,26.70
2019-06-07T11:43:37.839Z,26.40
2019-06-07T11:46:04.127Z,25.30
2019-06-07T11:48:30.366Z,25.00
2019-06-07T11:50:57.237Z,25.50
2019-06-07T11:53:23.753Z,25.40
2019-06-07T11:55:49.950Z,29.50
2019-06-07T11:58:19.742Z,32.10
2019-06-07T12:00:44.388Z,35.30
2019-06-07T12:03:11.579Z,36.70
2019-06-07T12:05:37.940Z,37.30
2019-06-07T12:08:04.209Z,37.70
2019-06-07T12:10:41.748Z,41.30
2019-06-07T12:12:58.533Z,42.70
2019-06-07T12:15:24.801Z,43.60
2019-06-07T12:17:51.029Z,43.30
2019-06-07T12:20:18.861Z,44.10
2019-06-07T12:22:45.567Z,44.50
2019-06-07T12:25:12.546Z,44.70
2019-06-07T12:27:39.817Z,45.70
2019-06-07T12:30:11.163Z,44.80
2019-06-07T12:32:34.886Z,44.50
2019-06-07T12:35:01.077Z,45.90
2019-06-07T12:37:42.679Z,46.50
2019-06-07T12:39:56.451Z,46.70
2019-06-07T12:42:22.757Z,43.80
2019-06-07T12:44:49.095Z,44.70
2019-06-07T12:47:15.276Z,46.60
2019-06-07T12:49:41.602Z,47.70
2019-06-07T12:52:07.788Z,48.30
2019-06-07T12:54:33.970Z,47.40
2019-06-07T12:57:00.200Z,47.30
2019-06-07T12:59:26.386Z,46.00
2019-06-07T13:01:52.727Z,45.50
2019-06-07T13:04:18.923Z,46.40
2019-06-07T13:06:45.333Z,46.20
2019-06-07T13:09:11.516Z,47.60
2019-06-07T13:11:37.856Z,46.30
2019-06-07T13:14:04.149Z,46.40
2019-06-07T13:16:30.316Z,46.70
2019-06-07T13:18:56.851Z,46.50
2019-06-07T13:21:24.498Z,45.60
2019-06-07T13:23:51.078Z,45.00
2019-06-07T13:26:18.500Z,45.30
2019-06-07T13:28:44.892Z,47.20
2019-06-07T13:31:11.079Z,46.70
2019-06-07T13:33:38.861Z,46.50
2019-06-07T13:36:05.349Z,45.70
2019-06-07T13:38:31.622Z,46.80
2019-06-07T13:40:57.847Z,47.80
2019-06-07T13:43:25.591Z,47.60
2019-06-07T13:45:52.134Z,47.10
2019-06-07T13:48:19.210Z,46.50
2019-06-07T13:50:45.700Z,47.50
2019-06-07T13:53:11.879Z,46.30
2019-06-07T13:55:38.110Z,45.70
2019-06-07T13:58:04.363Z,48.90
2019-06-07T14:00:31.685Z,48.20
2019-06-07T14:02:57.954Z,48.40
2019-06-07T14:05:25.019Z,49.10
2019-06-07T14:07:51.708Z,48.70
2019-06-07T14:10:19.277Z,48.70
2019-06-07T14:12:45.668Z,47.50
2019-06-07T14:15:12.453Z,46.60
2019-06-07T14:17:38.666Z,48.00
2019-06-07T14:20:09.420Z,47.40
2019-06-07T14:22:36.646Z,48.60
2019-06-07T14:25:08.264Z,48.00
2019-06-07T14:27:34.456Z,48.90
2019-06-07T14:30:00.608Z,47.50
2019-06-07T14:32:26.896Z,48.30
2019-06-07T14:34:53.067Z,47.20
2019-06-07T14:37:19.432Z,47.10
2019-06-07T14:39:45.603Z,47.50
2019-06-07T14:42:11.901Z,46.30
2019-06-07T14:44:38.128Z,46.30
2019-06-07T14:47:04.490Z,47.40
2019-06-07T14:49:30.658Z,47.30
2019-06-07T14:51:57.942Z,47.20
2019-06-07T14:54:24.577Z,46.50
2019-06-07T14:56:50.892Z,45.90
2019-06-07T14:59:17.072Z,47.10
2019-06-07T15:01:43.259Z,46.60
2019-06-07T15:04:09.655Z,47.80
2019-06-07T15:06:35.838Z,47.10
2019-06-07T15:09:04.872Z,47.50
2019-06-07T15:11:32.998Z,46.80
2019-06-07T15:13:59.410Z,47.80
2019-06-07T15:16:25.607Z,47.10
2019-06-07T15:18:51.798Z,46.80
2019-06-07T15:21:17.948Z,47.70
2019-06-07T15:23:44.250Z,47.90
2019-06-07T15:26:30.294Z,47.10
2019-06-07T15:28:56.495Z,46.70
2019-06-07T15:31:22.648Z,46.80
2019-06-07T15:33:48.907Z,48.10
2019-06-07T15:36:15.064Z,47.10
2019-06-07T15:38:41.366Z,47.70
2019-06-07T15:41:07.695Z,48.00
2019-06-07T15:43:35.084Z,48.80
2019-06-07T15:46:01.529Z,49.00
2019-06-07T15:48:27.722Z,48.30
2019-06-07T15:50:53.976Z,49.00
2019-06-07T15:53:20.166Z,48.80
2019-06-07T15:55:46.338Z,49.40
2019-06-07T15:58:12.709Z,49.80
2019-06-07T16:00:40.596Z,49.80
2019-06-07T16:03:07.004Z,50.70
2019-06-07T16:05:34.181Z,50.40
2019-06-07T16:08:00.625Z,50.90
2019-06-07T16:10:26.808Z,50.30
2019-06-07T16:13:00.041Z,52.40
2019-06-07T16:15:21.607Z,50.90
2019-06-07T16:17:47.778Z,51.30
2019-06-07T16:20:14.368Z,51.30
2019-06-07T16:22:41.881Z,53.00
2019-06-07T16:25:09.138Z,52.10
2019-06-07T16:27:36.754Z,51.80
2019-06-07T16:30:11.962Z,52.00
2019-06-07T16:32:39.292Z,52.40
2019-06-07T16:35:06.793Z,52.60
2019-06-07T16:37:33.004Z,51.90
2019-06-07T16:39:59.295Z,53.10
2019-06-07T16:42:25.547Z,53.40
2019-06-07T16:44:51.788Z,51.30
2019-06-07T16:47:18.026Z,52.00
2019-06-07T16:49:45.099Z,52.30
2019-06-07T16:52:12.349Z,53.00
2019-06-07T16:54:39.314Z,53.00
2019-06-07T16:57:05.758Z,52.90
2019-06-07T16:59:31.967Z,53.20
2019-06-07T17:01:58.143Z,53.60
2019-06-07T17:04:24.395Z,53.50
2019-06-07T17:06:50.653Z,53.80
2019-06-07T17:09:16.995Z,54.00
2019-06-07T17:11:44.319Z,53.70
2019-06-07T17:14:11.288Z,53.90
2019-06-07T17:16:38.803Z,54.20
2019-06-07T17:19:05.147Z,54.30
2019-06-07T17:21:31.312Z,54.90
2019-06-07T17:23:57.501Z,54.70
2019-06-07T17:26:23.710Z,55.30
2019-06-07T17:28:50.139Z,54.50
2019-06-07T17:31:16.480Z,55.90
2019-06-07T17:33:43.855Z,56.10
2019-06-07T17:36:10.254Z,56.50
2019-06-07T17:38:36.574Z,57.10
2019-06-07T17:41:02.829Z,57.30
2019-06-07T17:43:29.110Z,57.50
2019-06-07T17:45:55.394Z,57.90
2019-06-07T17:48:23.965Z,58.20
2019-06-07T17:50:50.006Z,58.40
2019-06-07T17:53:16.278Z,58.70
2019-06-07T17:55:42.473Z,58.50
2019-06-07T17:58:08.632Z,59.50
2019-06-07T18:00:46.523Z,59.20
2019-06-07T18:03:34.672Z,59.90
2019-06-07T18:06:01.485Z,59.60
2019-06-07T18:08:27.961Z,59.60
2019-06-07T18:10:54.318Z,59.60
2019-06-07T18:13:21.681Z,59.50
2019-06-07T18:15:52.974Z,59.50
2019-06-07T18:18:16.561Z,59.70
2019-06-07T18:20:42.996Z,60.00
2019-06-07T18:23:09.780Z,60.00
2019-06-07T18:25:36.316Z,60.10
2019-06-07T18:28:03.448Z,61.00
2019-06-07T18:30:29.610Z,61.40
2019-06-07T18:32:55.788Z,61.40
2019-06-07T18:35:21.963Z,62.10
2019-06-07T18:37:48.951Z,62.30
2019-06-07T18:40:15.421Z,63.00
2019-06-07T18:42:41.600Z,63.70
2019-06-07T18:45:08.693Z,64.10
2019-06-07T18:47:35.120Z,64.10
2019-06-07T18:50:01.300Z,64.30
2019-06-07T18:52:32.103Z,64.70
2019-06-07T18:54:59.659Z,65.00
2019-06-07T18:57:25.964Z,65.10
2019-06-07T18:59:52.350Z,65.60
2019-06-07T19:02:18.880Z,66.00
2019-06-07T19:04:45.049Z,66.10
2019-06-07T19:07:11.290Z,66.60
2019-06-07T19:09:37.464Z,67.10
2019-06-07T19:12:03.652Z,67.50
2019-06-07T19:14:37.019Z,68.70
2019-06-07T19:16:58.023Z,68.50
2019-06-07T19:19:24.213Z,70.90
2019-06-07T19:21:51.992Z,70.30
2019-06-07T19:24:38.186Z,71.00
2019-06-07T19:27:04.426Z,71.70
2019-06-07T19:29:31.672Z,71.70
2019-06-07T19:31:58.868Z,73.00
2019-06-07T19:34:25.328Z,73.10
2019-06-07T19:36:51.561Z,74.20
2019-06-07T19:39:17.907Z,74.60
2019-06-07T19:41:44.155Z,74.90
2019-06-07T19:44:10.336Z,75.20
2019-06-07T19:46:36.620Z,75.20
2019-06-07T19:49:03.137Z,75.10
2019-06-07T19:51:29.590Z,76.60
2019-06-07T19:53:57.020Z,76.20
2019-06-07T19:56:23.368Z,76.10
2019-06-07T19:58:49.538Z,76.80
2019-06-07T20:01:15.727Z,77.20
2019-06-07T20:03:41.882Z,77.90
2019-06-07T20:06:08.079Z,79.00
2019-06-07T20:08:34.269Z,78.80
2019-06-07T20:11:00.607Z,78.50
2019-06-07T20:13:26.924Z,80.00
2019-06-07T20:15:53.093Z,80.30
2019-06-07T20:18:19.277Z,80.20
2019-06-07T20:20:46.050Z,80.10
2019-06-07T20:23:12.232Z,80.10
2019-06-07T20:25:38.407Z,79.90
2019-06-07T20:28:05.608Z,80.00
2019-06-07T20:30:31.842Z,80.30
2019-06-07T20:32:58.021Z,80.60
2019-06-07T20:35:24.173Z,80.40
2019-06-07T20:37:50.386Z,78.10
2019-06-07T20:40:24.395Z,76.70
2019-06-07T20:42:46.752Z,74.20
2019-06-07T20:45:13.739Z,73.80
2019-06-07T20:47:39.927Z,73.80
2019-06-07T20:50:08.465Z,73.30
2019-06-07T20:52:34.986Z,71.70
2019-06-07T20:55:02.695Z,71.10
2019-06-07T20:57:29.470Z,70.50
2019-06-07T20:59:55.751Z,70.00
2019-06-07T21:02:22.147Z,68.10
2019-06-07T21:04:48.378Z,67.00
2019-06-07T21:07:14.665Z,65.30
2019-06-07T21:09:40.963Z,63.10
2019-06-07T21:12:07.946Z,63.20
2019-06-07T21:14:34.309Z,64.20
2019-06-07T21:17:00.589Z,65.30
2019-06-07T21:19:26.777Z,66.90
2019-06-07T21:21:52.969Z,69.40
2019-06-07T21:24:19.148Z,70.80
2019-06-07T21:26:45.415Z,72.20
2019-06-07T21:29:12.079Z,73.80
2019-06-07T21:31:38.369Z,75.30
2019-06-07T21:34:07.653Z,75.40
2019-06-07T21:36:32.667Z,74.30
2019-06-07T21:38:58.859Z,74.60
2019-06-07T21:41:25.024Z,75.40
2019-06-07T21:43:51.228Z,75.80
2019-06-07T21:46:20.523Z,76.90
2019-06-07T21:48:45.518Z,77.20
2019-06-07T21:51:12.712Z,78.00
2019-06-07T21:53:39.072Z,78.60
2019-06-07T21:56:05.283Z,78.40
2019-06-07T21:58:31.444Z,77.50
2019-06-07T22:01:01.436Z,76.60
2019-06-07T22:03:27.910Z,75.50
2019-06-07T22:05:54.101Z,74.80
2019-06-07T22:08:20.258Z,73.70
2019-06-07T22:10:46.465Z,73.50
2019-06-07T22:13:12.625Z,73.30
2019-06-07T22:15:38.879Z,72.60
2019-06-07T22:18:06.960Z,73.10
2019-06-07T22:20:33.428Z,73.50
2019-06-07T22:22:59.589Z,73.30
2019-06-07T22:25:25.773Z,73.50
2019-06-07T22:27:51.957Z,73.80
2019-06-07T22:30:18.841Z,74.60
2019-06-07T22:32:45.122Z,73.10
2019-06-07T22:35:12.916Z,73.00
2019-06-07T22:37:39.168Z,73.10
2019-06-07T22:40:06.247Z,72.80
2019-06-07T22:42:32.641Z,72.70
2019-06-07T22:44:59.870Z,71.60
2019-06-07T22:47:26.139Z,71.10
2019-06-07T22:49:52.328Z,70.80
2019-06-07T22:52:18.506Z,70.90
2019-06-07T22:54:44.666Z,70.50
2019-06-07T22:57:16.630Z,70.80
2019-06-07T22:59:43.051Z,70.80
2019-06-07T23:02:10.354Z,70.40
2019-06-07T23:04:37.262Z,70.30
2019-06-07T23:07:03.512Z,70.40
2019-06-07T23:09:29.682Z,70.20
2019-06-07T23:11:55.876Z,70.70
2019-06-07T23:14:25.002Z,70.60
2019-06-07T23:16:55.565Z,70.70
2019-06-07T23:19:18.346Z,70.80
2019-06-07T23:21:44.708Z,71.20
2019-06-07T23:24:11.897Z,71.60
2019-06-07T23:26:38.263Z,71.60
2019-06-07T23:29:04.544Z,71.50
2019-06-07T23:31:30.805Z,71.40
2019-06-07T23:33:56.977Z,71.20
2019-06-07T23:36:23.148Z,71.70
2019-06-07T23:38:49.347Z,71.70
2019-06-07T23:41:15.591Z,71.90
2019-06-07T23:43:41.897Z,71.80
2019-06-07T23:46:08.120Z,71.80
2019-06-07T23:48:34.309Z,71.10
2019-06-07T23:51:00.494Z,72.10
2019-06-07T23:53:46.575Z,72.30
2019-06-07T23:56:13.794Z,72.50
2019-06-07T23:58:40.137Z,71.80
